createdAt,value
2022-11-10T00:01:06.517Z,89.55
2022-11-10T00:03:33.728Z,89.39
2022-11-10T00:06:03.437Z,89.56
2022-11-10T00:08:30.441Z,89.29
2022-11-10T00:11:01.831Z,89.68
2022-11-10T00:13:31.945Z,88.88
2022-11-10T00:16:19.135Z,89.57
2022-11-10T00:18:45.757Z,89.24
2022-11-10T00:21:16.144Z,88.97
2022-11-10T00:23:42.781Z,89.39
2022-11-10T00:26:20.978Z,88.96
2022-11-10T00:28:47.650Z,89.69
2022-11-10T00:31:17.366Z,89.70
2022-11-10T00:33:44.552Z,90.07
2022-11-10T00:36:11.821Z,89.63
2022-11-10T00:38:41.321Z,89.87
2022-11-10T00:41:08.045Z,89.23
2022-11-10T00:43:37.652Z,89.64
2022-11-10T00:46:04.371Z,90.01
2022-11-10T00:48:33.924Z,89.32
2022-11-10T00:51:00.480Z,88.95
2022-11-10T00:53:27.164Z,89.46
2022-11-10T00:55:53.827Z,89.66
2022-11-10T00:58:20.469Z,89.47
2022-11-10T01:00:47.106Z,89.72
2022-11-10T01:03:19.580Z,89.31
2022-11-10T01:05:46.392Z,89.87
2022-11-10T01:08:13.023Z,89.95
2022-11-10T01:10:39.738Z,89.45
2022-11-10T01:13:06.378Z,89.25
2022-11-10T01:15:38.373Z,89.99
2022-11-10T01:18:06.356Z,89.60
2022-11-10T01:20:36.064Z,89.42
2022-11-10T01:23:02.679Z,89.57
2022-11-10T01:25:29.260Z,89.82
2022-11-10T01:27:55.873Z,89.40
2022-11-10T01:30:22.445Z,89.60
2022-11-10T01:32:51.911Z,89.73
2022-11-10T01:35:18.539Z,89.94
2022-11-10T01:37:47.319Z,89.69
2022-11-10T01:40:14.273Z,89.79
2022-11-10T01:42:55.551Z,89.86
2022-11-10T01:45:24.947Z,89.81
2022-11-10T01:48:00.931Z,89.85
2022-11-10T01:50:33.014Z,89.56
2022-11-10T01:53:03.311Z,89.41
2022-11-10T01:55:31.123Z,90.02
2022-11-10T01:57:58.237Z,89.86
2022-11-10T02:00:25.087Z,90.21
2022-11-10T02:03:01.600Z,90.19
2022-11-10T02:05:28.332Z,89.92
2022-11-10T02:07:56.947Z,90.18
2022-11-10T02:10:23.632Z,89.84
2022-11-10T02:12:50.424Z,89.83
2022-11-10T02:15:18.264Z,89.77
2022-11-10T02:17:47.365Z,90.01
2022-11-10T02:20:18.757Z,90.15
2022-11-10T02:22:45.416Z,90.00
2022-11-10T02:25:15.532Z,90.42
2022-11-10T02:27:42.100Z,90.29
2022-11-10T02:30:09.206Z,90.20
2022-11-10T02:32:36.295Z,89.91
2022-11-10T02:35:03.367Z,90.44
2022-11-10T02:37:30.017Z,89.98
2022-11-10T02:39:56.572Z,89.94
2022-11-10T02:42:23.173Z,90.41
2022-11-10T02:44:49.743Z,90.18
2022-11-10T02:47:16.303Z,90.07
2022-11-10T02:49:44.989Z,90.24
2022-11-10T02:52:11.571Z,90.41
2022-11-10T02:54:38.157Z,90.17
2022-11-10T02:57:04.756Z,90.37
2022-11-10T02:59:31.333Z,90.40
2022-11-10T03:01:57.887Z,90.47
2022-11-10T03:04:24.531Z,90.62
2022-11-10T03:06:51.174Z,90.08
2022-11-10T03:09:17.825Z,90.36
2022-11-10T03:11:44.409Z,89.69
2022-11-10T03:14:10.990Z,90.93
2022-11-10T03:16:37.539Z,90.43
2022-11-10T03:19:04.300Z,90.29
2022-11-10T03:21:30.925Z,90.51
2022-11-10T03:23:57.478Z,90.47
2022-11-10T03:26:24.072Z,90.53
2022-11-10T03:28:50.836Z,90.03
2022-11-10T03:31:17.392Z,90.37
2022-11-10T03:33:43.964Z,90.36
2022-11-10T03:36:10.512Z,90.23
2022-11-10T03:38:37.067Z,90.24
2022-11-10T03:41:18.672Z,90.08
2022-11-10T03:43:46.286Z,90.40
2022-11-10T03:46:12.852Z,90.34
2022-11-10T03:48:39.424Z,90.06
2022-11-10T03:51:09.102Z,90.32
2022-11-10T03:53:35.726Z,90.67
2022-11-10T03:56:03.886Z,90.47
2022-11-10T03:58:30.593Z,90.52
2022-11-10T04:00:57.526Z,90.34
2022-11-10T04:03:26.330Z,90.54
2022-11-10T04:06:11.576Z,90.67
2022-11-10T04:08:56.685Z,90.66
2022-11-10T04:11:42.187Z,90.20
2022-11-10T04:14:27.518Z,90.08
2022-11-10T04:16:54.218Z,90.48
2022-11-10T04:19:20.760Z,90.10
2022-11-10T04:21:47.548Z,90.59
2022-11-10T04:24:14.288Z,90.12
2022-11-10T04:26:42.823Z,90.25
2022-11-10T04:29:11.440Z,90.48
2022-11-10T04:31:41.806Z,90.80
2022-11-10T04:34:11.101Z,90.47
2022-11-10T04:36:40.022Z,90.11
2022-11-10T04:39:08.069Z,90.58
2022-11-10T04:41:35.259Z,90.34
2022-11-10T04:44:01.871Z,90.32
2022-11-10T04:46:32.594Z,90.52
2022-11-10T04:48:59.861Z,90.42
2022-11-10T04:51:35.105Z,90.32
2022-11-10T04:54:05.079Z,90.46
2022-11-10T04:56:31.782Z,90.68
2022-11-10T04:58:58.410Z,90.41
2022-11-10T05:01:27.748Z,90.56
2022-11-10T05:03:55.305Z,90.49
2022-11-10T05:06:22.691Z,89.94
2022-11-10T05:08:49.597Z,90.55
2022-11-10T05:11:17.181Z,90.66
2022-11-10T05:13:44.803Z,90.31
2022-11-10T05:16:12.294Z,90.53
2022-11-10T05:18:39.148Z,90.17
2022-11-10T05:21:05.948Z,90.57
2022-11-10T05:23:38.427Z,90.14
2022-11-10T05:26:09.464Z,90.84
2022-11-10T05:28:36.237Z,90.08
2022-11-10T05:31:03.495Z,90.74
2022-11-10T05:33:30.257Z,90.28
2022-11-10T05:35:56.991Z,89.78
2022-11-10T05:38:23.874Z,90.19
2022-11-10T05:40:50.575Z,90.23
2022-11-10T05:43:17.172Z,90.28
2022-11-10T05:45:43.724Z,89.66
2022-11-10T05:48:10.691Z,90.20
2022-11-10T05:50:37.436Z,90.43
2022-11-10T05:53:03.969Z,90.48
2022-11-10T05:55:30.890Z,89.84
2022-11-10T05:57:57.850Z,90.45
2022-11-10T06:00:28.427Z,90.16
2022-11-10T06:02:59.148Z,90.70
2022-11-10T06:05:30.952Z,89.91
2022-11-10T06:07:58.493Z,90.37
2022-11-10T06:10:25.843Z,90.42
2022-11-10T06:12:52.564Z,90.10
2022-11-10T06:15:19.388Z,90.01
2022-11-10T06:17:46.023Z,90.03
2022-11-10T06:20:14.690Z,90.17
2022-11-10T06:22:41.488Z,90.34
2022-11-10T06:25:09.325Z,89.96
2022-11-10T06:27:36.203Z,90.19
2022-11-10T06:30:03.712Z,90.34
2022-11-10T06:32:30.309Z,90.29
2022-11-10T06:35:00.433Z,90.00
2022-11-10T06:37:27.439Z,89.90
2022-11-10T06:39:54.050Z,90.28
2022-11-10T06:42:20.636Z,89.91
2022-11-10T06:44:47.189Z,89.44
2022-11-10T06:47:17.037Z,89.64
2022-11-10T06:49:43.597Z,89.42
2022-11-10T06:52:10.123Z,89.95
2022-11-10T06:54:36.773Z,89.53
2022-11-10T06:57:03.345Z,90.16
2022-11-10T06:59:29.917Z,89.94
2022-11-10T07:01:56.477Z,90.06
2022-11-10T07:04:23.121Z,89.73
2022-11-10T07:06:49.747Z,89.73
2022-11-10T07:09:16.430Z,89.95
2022-11-10T07:11:43.329Z,89.74
2022-11-10T07:14:10.382Z,90.29
2022-11-10T07:16:36.980Z,90.43
2022-11-10T07:19:03.771Z,90.10
2022-11-10T07:21:30.396Z,90.06
2022-11-10T07:23:56.956Z,89.94
2022-11-10T07:26:23.582Z,90.16
2022-11-10T07:28:50.147Z,89.62
2022-11-10T07:31:16.717Z,89.94
2022-11-10T07:33:44.147Z,90.21
2022-11-10T07:36:10.761Z,89.87
2022-11-10T07:38:37.424Z,90.37
2022-11-10T07:41:04.110Z,90.22
2022-11-10T07:43:30.668Z,90.12
2022-11-10T07:45:57.741Z,89.47
2022-11-10T07:48:24.298Z,90.03
2022-11-10T07:50:51.211Z,89.64
2022-11-10T07:53:20.652Z,89.80
2022-11-10T07:55:48.143Z,90.39
2022-11-10T07:58:17.453Z,90.08
2022-11-10T08:00:45.032Z,89.98
2022-11-10T08:03:15.230Z,89.96
2022-11-10T08:05:41.927Z,90.16
2022-11-10T08:08:08.627Z,90.07
2022-11-10T08:10:36.105Z,90.28
2022-11-10T08:13:05.546Z,90.40
2022-11-10T08:15:33.363Z,90.08
2022-11-10T08:18:08.856Z,90.02
2022-11-10T08:20:35.704Z,90.10
2022-11-10T08:23:05.624Z,90.39
2022-11-10T08:25:35.305Z,89.99
2022-11-10T08:28:07.947Z,90.46
2022-11-10T08:30:36.291Z,90.08
2022-11-10T08:33:04.991Z,89.85
2022-11-10T08:35:34.738Z,90.14
2022-11-10T08:38:27.630Z,89.88
2022-11-10T08:40:57.496Z,89.76
2022-11-10T08:43:25.030Z,89.42
2022-11-10T08:45:54.776Z,89.99
2022-11-10T08:48:21.374Z,89.90
2022-11-10T08:50:49.634Z,89.52
2022-11-10T08:53:19.601Z,89.93
2022-11-10T08:55:47.004Z,89.24
2022-11-10T08:58:17.539Z,89.30
2022-11-10T09:00:44.910Z,89.71
2022-11-10T09:03:23.804Z,89.21
2022-11-10T09:05:57.645Z,89.19
2022-11-10T09:08:24.781Z,89.84
2022-11-10T09:10:51.421Z,89.71
2022-11-10T09:13:23.466Z,89.65
2022-11-10T09:15:52.840Z,89.15
2022-11-10T09:18:19.439Z,89.21
2022-11-10T09:20:46.333Z,89.50
2022-11-10T09:23:15.923Z,89.00
2022-11-10T09:25:48.304Z,89.30
2022-11-10T09:28:16.216Z,88.80
2022-11-10T09:30:45.748Z,88.79
2022-11-10T09:33:12.596Z,88.79
2022-11-10T09:35:39.302Z,88.32
2022-11-10T09:38:06.271Z,88.50
2022-11-10T09:40:57.991Z,88.41
2022-11-10T09:43:53.757Z,88.24
2022-11-10T09:46:40.591Z,87.84
2022-11-10T09:49:12.901Z,87.36
2022-11-10T09:51:47.097Z,87.27
2022-11-10T09:54:21.090Z,87.49
2022-11-10T09:56:48.002Z,87.15
2022-11-10T09:59:26.691Z,86.83
2022-11-10T10:02:03.221Z,86.80
2022-11-10T10:04:51.689Z,86.54
2022-11-10T10:07:55.599Z,86.51
2022-11-10T10:10:34.453Z,86.74
2022-11-10T10:13:51.155Z,86.64
2022-11-10T10:16:23.345Z,86.47
2022-11-10T10:18:55.737Z,86.29
2022-11-10T10:21:51.758Z,85.98
2022-11-10T10:24:22.356Z,86.27
2022-11-10T10:26:59.110Z,85.54
2022-11-10T10:29:37.001Z,85.73
2022-11-10T10:32:04.587Z,85.50
2022-11-10T10:34:34.494Z,85.13
2022-11-10T10:37:01.582Z,85.01
2022-11-10T10:39:42.671Z,85.02
2022-11-10T10:42:35.415Z,84.95
2022-11-10T10:45:23.226Z,85.23
2022-11-10T10:47:53.593Z,84.92
2022-11-10T10:50:33.610Z,84.97
2022-11-10T10:53:14.358Z,84.85
2022-11-10T10:56:16.284Z,84.92
2022-11-10T10:58:54.770Z,84.73
2022-11-10T11:01:31.864Z,84.64
2022-11-10T11:04:04.936Z,84.59
2022-11-10T11:06:33.440Z,84.65
2022-11-10T11:09:38.489Z,84.37
2022-11-10T11:12:08.734Z,84.43
2022-11-10T11:14:35.321Z,84.65
2022-11-10T11:17:19.875Z,84.07
2022-11-10T11:19:46.640Z,83.99
2022-11-10T11:22:16.049Z,84.10
2022-11-10T11:25:17.156Z,83.82
2022-11-10T11:27:53.096Z,83.75
2022-11-10T11:30:23.923Z,83.41
2022-11-10T11:33:12.757Z,83.08
2022-11-10T11:35:39.325Z,83.03
2022-11-10T11:38:34.211Z,82.82
2022-11-10T11:41:19.200Z,82.50
2022-11-10T11:43:57.605Z,82.67
2022-11-10T11:46:49.349Z,82.41
2022-11-10T11:49:28.192Z,82.18
2022-11-10T11:52:06.848Z,82.07
2022-11-10T11:54:51.944Z,82.07
2022-11-10T11:58:04.041Z,81.81
2022-11-10T12:00:56.047Z,81.35
2022-11-10T12:03:38.306Z,81.53
2022-11-10T12:06:33.007Z,81.36
2022-11-10T12:09:41.399Z,81.13
2022-11-10T12:12:07.895Z,81.03
2022-11-10T12:14:55.691Z,81.06
2022-11-10T12:17:34.262Z,80.78
2022-11-10T12:20:19.303Z,80.67
2022-11-10T12:22:57.853Z,80.72
2022-11-10T12:25:49.100Z,80.64
2022-11-10T12:28:25.883Z,80.77
2022-11-10T12:31:01.731Z,80.65
2022-11-10T12:33:34.863Z,80.87
2022-11-10T12:36:05.733Z,80.67
2022-11-10T12:39:00.901Z,80.65
2022-11-10T12:41:37.375Z,80.84
2022-11-10T12:44:41.676Z,80.87
2022-11-10T12:47:15.817Z,80.24
2022-11-10T12:49:57.791Z,80.71
2022-11-10T12:52:36.701Z,80.30
2022-11-10T12:55:04.298Z,80.21
2022-11-10T12:57:31.904Z,79.96
2022-11-10T13:00:08.256Z,79.70
2022-11-10T13:02:40.490Z,79.61
2022-11-10T13:05:25.689Z,79.56
2022-11-10T13:08:27.221Z,79.39
2022-11-10T13:11:12.200Z,79.58
2022-11-10T13:13:46.078Z,79.66
2022-11-10T13:16:41.264Z,79.68
2022-11-10T13:19:38.945Z,80.06
2022-11-10T13:22:10.234Z,79.53
2022-11-10T13:24:42.600Z,79.97
2022-11-10T13:27:33.528Z,80.11
2022-11-10T13:30:00.358Z,80.11
2022-11-10T13:32:34.167Z,80.25
2022-11-10T13:35:28.347Z,79.96
2022-11-10T13:37:56.560Z,80.13
2022-11-10T13:40:23.372Z,80.00
2022-11-10T13:42:58.845Z,80.04
2022-11-10T13:45:34.460Z,79.92
2022-11-10T13:48:27.810Z,79.82
2022-11-10T13:51:08.228Z,79.92
2022-11-10T13:53:40.831Z,79.80
2022-11-10T13:56:19.612Z,79.38
2022-11-10T13:58:46.655Z,79.58
2022-11-10T14:01:19.056Z,79.58
2022-11-10T14:03:48.751Z,79.80
2022-11-10T14:06:22.662Z,79.84
2022-11-10T14:09:18.422Z,79.65
2022-11-10T14:11:56.709Z,80.03
2022-11-10T14:14:33.665Z,79.42
2022-11-10T14:17:00.977Z,79.72
2022-11-10T14:19:39.028Z,79.73
2022-11-10T14:22:27.465Z,80.10
2022-11-10T14:25:01.824Z,79.84
2022-11-10T14:27:32.272Z,79.95
2022-11-10T14:30:08.170Z,80.40
2022-11-10T14:32:35.752Z,80.50
2022-11-10T14:35:02.588Z,80.11
2022-11-10T14:37:29.987Z,80.38
2022-11-10T14:40:02.097Z,80.22
2022-11-10T14:42:31.340Z,80.30
2022-11-10T14:45:16.215Z,80.48
2022-11-10T14:47:43.356Z,80.53
2022-11-10T14:50:18.893Z,80.67
2022-11-10T14:52:48.440Z,80.47
2022-11-10T14:55:20.401Z,80.65
2022-11-10T14:57:54.043Z,80.27
2022-11-10T15:00:25.688Z,80.57
2022-11-10T15:02:54.824Z,80.59
2022-11-10T15:05:21.871Z,80.80
2022-11-10T15:07:52.695Z,80.46
2022-11-10T15:10:25.556Z,80.52
2022-11-10T15:13:00.264Z,80.13
2022-11-10T15:15:26.936Z,80.20
2022-11-10T15:17:53.859Z,80.47
2022-11-10T15:20:57.825Z,80.67
2022-11-10T15:23:33.577Z,80.39
2022-11-10T15:26:00.742Z,80.38
2022-11-10T15:28:35.145Z,80.26
2022-11-10T15:31:05.467Z,80.56
2022-11-10T15:33:35.591Z,80.15
2022-11-10T15:36:35.968Z,80.44
2022-11-10T15:39:11.732Z,80.45
2022-11-10T15:41:43.440Z,80.40
2022-11-10T15:44:28.125Z,80.07
2022-11-10T15:46:56.861Z,80.29
2022-11-10T15:49:27.440Z,80.22
2022-11-10T15:52:02.867Z,80.49
2022-11-10T15:54:32.043Z,80.67
2022-11-10T15:56:58.629Z,80.61
2022-11-10T15:59:25.238Z,80.64
2022-11-10T16:01:52.703Z,80.57
2022-11-10T16:04:19.367Z,80.14
2022-11-10T16:06:47.203Z,80.34
2022-11-10T16:09:14.229Z,80.80
2022-11-10T16:11:44.148Z,80.49
2022-11-10T16:14:14.640Z,80.68
2022-11-10T16:16:42.000Z,80.22
2022-11-10T16:19:12.725Z,80.93
2022-11-10T16:21:39.391Z,80.45
2022-11-10T16:24:06.306Z,80.25
2022-11-10T16:26:34.529Z,80.78
2022-11-10T16:29:01.555Z,80.43
2022-11-10T16:31:28.283Z,80.60
2022-11-10T16:33:55.197Z,80.25
2022-11-10T16:36:26.200Z,80.89
2022-11-10T16:38:54.174Z,80.80
2022-11-10T16:41:20.959Z,80.73
2022-11-10T16:43:47.790Z,80.84
2022-11-10T16:46:22.016Z,80.32
2022-11-10T16:48:51.281Z,80.70
2022-11-10T16:51:18.320Z,80.77
2022-11-10T16:53:45.522Z,80.91
2022-11-10T16:56:16.231Z,81.07
2022-11-10T16:58:42.956Z,80.69
2022-11-10T17:01:20.713Z,80.79
2022-11-10T17:03:53.473Z,80.76
2022-11-10T17:06:23.192Z,81.04
2022-11-10T17:08:52.112Z,80.78
2022-11-10T17:11:19.219Z,80.62
2022-11-10T17:13:45.874Z,81.05
2022-11-10T17:16:29.742Z,80.76
2022-11-10T17:18:59.516Z,80.90
2022-11-10T17:21:32.543Z,80.78
2022-11-10T17:24:00.329Z,81.34
2022-11-10T17:26:27.940Z,81.29
2022-11-10T17:28:54.591Z,81.37
2022-11-10T17:31:21.219Z,81.26
2022-11-10T17:33:47.825Z,81.48
2022-11-10T17:36:18.946Z,81.36
2022-11-10T17:38:46.167Z,81.27
2022-11-10T17:41:17.943Z,82.03
2022-11-10T17:43:47.887Z,81.22
2022-11-10T17:46:15.330Z,81.84
2022-11-10T17:48:42.835Z,81.17
2022-11-10T17:51:19.248Z,80.89
2022-11-10T17:53:46.025Z,81.48
2022-11-10T17:56:13.167Z,81.58
2022-11-10T17:58:40.050Z,81.60
2022-11-10T18:01:18.553Z,81.63
2022-11-10T18:03:48.096Z,81.51
2022-11-10T18:06:15.915Z,81.62
2022-11-10T18:08:43.104Z,81.90
2022-11-10T18:11:11.830Z,82.25
2022-11-10T18:13:39.880Z,82.15
2022-11-10T18:16:09.008Z,82.05
2022-11-10T18:18:36.790Z,82.01
2022-11-10T18:21:05.456Z,82.27
2022-11-10T18:23:32.660Z,82.05
2022-11-10T18:26:07.468Z,82.66
2022-11-10T18:28:35.095Z,82.29
2022-11-10T18:31:13.169Z,82.00
2022-11-10T18:33:40.622Z,82.25
2022-11-10T18:36:07.641Z,82.14
2022-11-10T18:38:34.241Z,82.26
2022-11-10T18:41:25.274Z,81.74
2022-11-10T18:43:52.281Z,81.98
2022-11-10T18:46:18.985Z,82.33
2022-11-10T18:48:46.897Z,81.91
2022-11-10T18:51:14.280Z,81.95
2022-11-10T18:53:40.905Z,81.83
2022-11-10T18:56:07.668Z,82.27
2022-11-10T18:58:34.330Z,81.89
2022-11-10T19:01:09.565Z,81.98
2022-11-10T19:03:36.985Z,82.36
2022-11-10T19:06:03.838Z,82.12
2022-11-10T19:08:30.402Z,82.07
2022-11-10T19:10:57.783Z,82.21
2022-11-10T19:13:24.858Z,82.17
2022-11-10T19:15:51.843Z,81.90
2022-11-10T19:18:18.404Z,81.89
2022-11-10T19:20:45.050Z,82.09
2022-11-10T19:23:11.662Z,81.86
2022-11-10T19:25:38.206Z,81.91
2022-11-10T19:28:04.869Z,82.33
2022-11-10T19:30:31.726Z,82.39
2022-11-10T19:32:59.224Z,81.73
2022-11-10T19:35:25.782Z,82.32
2022-11-10T19:37:54.114Z,82.21
2022-11-10T19:40:21.903Z,82.20
2022-11-10T19:42:48.537Z,81.74
2022-11-10T19:45:16.647Z,82.21
2022-11-10T19:47:43.790Z,82.30
2022-11-10T19:50:10.519Z,81.80
2022-11-10T19:52:37.122Z,82.24
2022-11-10T19:55:04.021Z,82.33
2022-11-10T19:57:30.641Z,82.02
2022-11-10T19:59:57.266Z,82.10
2022-11-10T20:02:23.847Z,82.39
2022-11-10T20:05:08.949Z,81.89
2022-11-10T20:07:54.107Z,81.81
2022-11-10T20:10:20.714Z,81.75
2022-11-10T20:12:47.402Z,81.81
2022-11-10T20:15:14.135Z,82.17
2022-11-10T20:17:40.928Z,81.89
2022-11-10T20:20:07.924Z,81.99
2022-11-10T20:22:34.882Z,82.23
2022-11-10T20:25:01.584Z,81.97
2022-11-10T20:27:28.921Z,81.88
2022-11-10T20:29:55.627Z,82.07
2022-11-10T20:32:22.240Z,82.40
2022-11-10T20:34:48.948Z,82.72
2022-11-10T20:37:15.570Z,82.22
2022-11-10T20:39:42.240Z,82.23
2022-11-10T20:42:10.380Z,82.81
2022-11-10T20:44:37.169Z,82.79
2022-11-10T20:47:04.504Z,82.89
2022-11-10T20:49:31.456Z,82.80
2022-11-10T20:51:59.846Z,82.95
2022-11-10T20:54:27.520Z,82.68
2022-11-10T20:56:54.523Z,82.63
2022-11-10T20:59:23.368Z,82.96
2022-11-10T21:01:49.965Z,83.38
2022-11-10T21:04:16.793Z,82.99
2022-11-10T21:06:43.418Z,83.10
2022-11-10T21:09:12.942Z,83.16
2022-11-10T21:11:58.357Z,83.06
2022-11-10T21:14:24.931Z,83.16
2022-11-10T21:16:51.488Z,83.38
2022-11-10T21:19:31.404Z,83.22
2022-11-10T21:22:01.350Z,83.78
2022-11-10T21:24:29.190Z,83.80
2022-11-10T21:26:57.137Z,83.58
2022-11-10T21:29:25.984Z,83.63
2022-11-10T21:31:54.602Z,83.76
2022-11-10T21:34:21.184Z,83.80
2022-11-10T21:36:47.911Z,83.66
2022-11-10T21:39:14.461Z,83.61
2022-11-10T21:41:42.788Z,83.82
2022-11-10T21:44:09.372Z,83.82
2022-11-10T21:46:35.937Z,83.90
2022-11-10T21:49:07.438Z,83.95
2022-11-10T21:51:34.548Z,83.76
2022-11-10T21:54:01.093Z,83.74
2022-11-10T21:56:27.640Z,83.49
2022-11-10T21:58:54.212Z,83.71
2022-11-10T22:01:21.082Z,83.72
2022-11-10T22:03:48.265Z,84.00
2022-11-10T22:06:17.227Z,83.59
2022-11-10T22:08:45.440Z,83.97
2022-11-10T22:11:33.837Z,83.83
2022-11-10T22:14:19.747Z,83.95
2022-11-10T22:17:06.852Z,83.82
2022-11-10T22:19:36.204Z,84.14
2022-11-10T22:22:04.134Z,83.94
2022-11-10T22:24:31.545Z,84.35
2022-11-10T22:27:03.775Z,84.31
2022-11-10T22:29:33.717Z,84.36
2022-11-10T22:32:01.263Z,84.06
2022-11-10T22:34:28.073Z,84.08
2022-11-10T22:36:59.672Z,84.12
2022-11-10T22:39:46.533Z,84.41
2022-11-10T22:42:34.780Z,84.15
2022-11-10T22:45:01.694Z,84.04
2022-11-10T22:47:48.426Z,84.41
2022-11-10T22:50:15.124Z,84.11
2022-11-10T22:52:41.689Z,84.15
2022-11-10T22:55:08.589Z,84.24
2022-11-10T22:57:35.168Z,84.41
2022-11-10T23:00:01.772Z,84.11
2022-11-10T23:02:30.460Z,84.36
2022-11-10T23:04:59.248Z,84.36
2022-11-10T23:07:25.814Z,84.22
2022-11-10T23:09:55.407Z,84.28
2022-11-10T23:12:22.013Z,84.46
2022-11-10T23:14:51.514Z,84.44
2022-11-10T23:17:18.089Z,84.47
2022-11-10T23:19:44.806Z,84.54
2022-11-10T23:22:11.387Z,84.35
2022-11-10T23:24:38.142Z,84.54
2022-11-10T23:27:04.765Z,84.84
2022-11-10T23:29:31.342Z,84.62
2022-11-10T23:31:57.916Z,84.65
2022-11-10T23:34:24.523Z,84.82
2022-11-10T23:36:51.084Z,84.46
2022-11-10T23:39:21.881Z,84.64
2022-11-10T23:41:48.433Z,84.72
2022-11-10T23:44:15.075Z,84.94
2022-11-10T23:46:44.481Z,84.50
2022-11-10T23:49:11.049Z,84.89
2022-11-10T23:51:37.615Z,84.97
2022-11-10T23:54:04.353Z,84.72
2022-11-10T23:56:30.918Z,84.97
2022-11-10T23:58:57.477Z,85.08
